sensor_id;sensor_type;location;lat;lon;timestamp;P1;durP1;ratioP1;P2;durP2;ratioP2
18983;SDS011;9626;52.552;13.436;2023-05-10T00:01:13;5.97;;;4.63;;
18983;SDS011;9626;52.552;13.436;2023-05-10T00:03:39;6.20;;;4.83;;
18983;SDS011;9626;52.552;13.436;2023-05-10T00:06:05;9.00;;;4.97;;
18983;SDS011;9626;52.552;13.436;2023-05-10T00:08:31;5.33;;;4.83;;
18983;SDS011;9626;52.552;13.436;2023-05-10T00:10:57;5.30;;;4.57;;
18983;SDS011;9626;52.552;13.436;2023-05-10T00:13:23;5.53;;;4.50;;
18983;SDS011;9626;52.552;13.436;2023-05-10T00:15:50;4.73;;;4.20;;
18983;SDS011;9626;52.552;13.436;2023-05-10T00:18:16;6.80;;;4.60;;
18983;SDS011;9626;52.552;13.436;2023-05-10T00:20:42;8.67;;;5.47;;
18983;SDS011;9626;52.552;13.436;2023-05-10T00:23:08;7.37;;;4.90;;
18983;SDS011;9626;52.552;13.436;2023-05-10T00:25:34;8.93;;;4.90;;
18983;SDS011;9626;52.552;13.436;2023-05-10T00:28:00;6.67;;;4.87;;
18983;SDS011;9626;52.552;13.436;2023-05-10T00:30:27;8.63;;;4.93;;
18983;SDS011;9626;52.552;13.436;2023-05-10T00:32:53;6.27;;;5.03;;
18983;SDS011;9626;52.552;13.436;2023-05-10T00:35:19;6.83;;;5.00;;
18983;SDS011;9626;52.552;13.436;2023-05-10T00:37:45;4.97;;;4.47;;
18983;SDS011;9626;52.552;13.436;2023-05-10T00:40:11;5.33;;;4.80;;
18983;SDS011;9626;52.552;13.436;2023-05-10T00:42:37;6.47;;;4.90;;
18983;SDS011;9626;52.552;13.436;2023-05-10T00:45:03;6.27;;;4.67;;
18983;SDS011;9626;52.552;13.436;2023-05-10T00:47:30;8.00;;;4.97;;
18983;SDS011;9626;52.552;13.436;2023-05-10T00:49:57;6.20;;;4.77;;
18983;SDS011;9626;52.552;13.436;2023-05-10T00:52:27;7.23;;;4.43;;
18983;SDS011;9626;52.552;13.436;2023-05-10T00:54:53;8.43;;;4.63;;
18983;SDS011;9626;52.552;13.436;2023-05-10T00:57:20;5.13;;;4.63;;
18983;SDS011;9626;52.552;13.436;2023-05-10T00:59:47;7.03;;;4.57;;
18983;SDS011;9626;52.552;13.436;2023-05-10T01:02:13;8.23;;;4.77;;
18983;SDS011;9626;52.552;13.436;2023-05-10T01:04:39;5.97;;;4.57;;
18983;SDS011;9626;52.552;13.436;2023-05-10T01:07:06;5.50;;;4.50;;
18983;SDS011;9626;52.552;13.436;2023-05-10T01:09:32;6.13;;;4.70;;
18983;SDS011;9626;52.552;13.436;2023-05-10T01:11:58;5.40;;;4.80;;
18983;SDS011;9626;52.552;13.436;2023-05-10T01:14:26;6.20;;;4.47;;
18983;SDS011;9626;52.552;13.436;2023-05-10T01:16:53;5.43;;;4.53;;
18983;SDS011;9626;52.552;13.436;2023-05-10T01:19:26;8.37;;;5.10;;
18983;SDS011;9626;52.552;13.436;2023-05-10T01:24:32;9.13;;;4.87;;
18983;SDS011;9626;52.552;13.436;2023-05-10T01:40:43;6.30;;;5.00;;
18983;SDS011;9626;52.552;13.436;2023-05-10T01:43:14;11.43;;;6.93;;
18983;SDS011;9626;52.552;13.436;2023-05-10T01:48:16;6.33;;;5.60;;
18983;SDS011;9626;52.552;13.436;2023-05-10T01:50:45;10.70;;;8.20;;
18983;SDS011;9626;52.552;13.436;2023-05-10T01:53:13;8.27;;;5.53;;
18983;SDS011;9626;52.552;13.436;2023-05-10T01:55:48;5.40;;;4.90;;
18983;SDS011;9626;52.552;13.436;2023-05-10T01:58:27;6.47;;;4.50;;
18983;SDS011;9626;52.552;13.436;2023-05-10T02:00:56;9.57;;;5.97;;
18983;SDS011;9626;52.552;13.436;2023-05-10T02:03:25;7.17;;;4.83;;
18983;SDS011;9626;52.552;13.436;2023-05-10T02:05:53;7.90;;;5.20;;
18983;SDS011;9626;52.552;13.436;2023-05-10T02:08:21;6.43;;;4.70;;
18983;SDS011;9626;52.552;13.436;2023-05-10T02:10:50;6.83;;;5.10;;
18983;SDS011;9626;52.552;13.436;2023-05-10T02:13:18;8.23;;;5.43;;
18983;SDS011;9626;52.552;13.436;2023-05-10T02:15:46;8.60;;;5.33;;
18983;SDS011;9626;52.552;13.436;2023-05-10T02:18:14;6.57;;;5.47;;
18983;SDS011;9626;52.552;13.436;2023-05-10T02:20:41;7.17;;;4.70;;
18983;SDS011;9626;52.552;13.436;2023-05-10T02:23:10;7.00;;;4.77;;
18983;SDS011;9626;52.552;13.436;2023-05-10T02:25:37;9.87;;;5.13;;
18983;SDS011;9626;52.552;13.436;2023-05-10T02:28:05;5.70;;;4.73;;
18983;SDS011;9626;52.552;13.436;2023-05-10T02:30:33;8.40;;;6.20;;
18983;SDS011;9626;52.552;13.436;2023-05-10T02:33:00;10.70;;;6.60;;
18983;SDS011;9626;52.552;13.436;2023-05-10T02:35:28;9.20;;;5.27;;
18983;SDS011;9626;52.552;13.436;2023-05-10T02:37:54;13.67;;;5.07;;
18983;SDS011;9626;52.552;13.436;2023-05-10T02:40:23;7.10;;;4.80;;
18983;SDS011;9626;52.552;13.436;2023-05-10T02:42:52;7.90;;;4.57;;
18983;SDS011;9626;52.552;13.436;2023-05-10T02:45:23;7.77;;;4.80;;
18983;SDS011;9626;52.552;13.436;2023-05-10T02:47:54;4.60;;;4.10;;
18983;SDS011;9626;52.552;13.436;2023-05-10T02:50:20;4.77;;;4.10;;
18983;SDS011;9626;52.552;13.436;2023-05-10T02:52:49;5.63;;;4.30;;
18983;SDS011;9626;52.552;13.436;2023-05-10T02:55:21;7.60;;;4.53;;
18983;SDS011;9626;52.552;13.436;2023-05-10T02:57:51;7.80;;;4.77;;
18983;SDS011;9626;52.552;13.436;2023-05-10T03:00:20;6.87;;;4.40;;
18983;SDS011;9626;52.552;13.436;2023-05-10T03:02:46;5.87;;;4.40;;
18983;SDS011;9626;52.552;13.436;2023-05-10T03:05:12;6.97;;;3.90;;
18983;SDS011;9626;52.552;13.436;2023-05-10T03:07:38;7.43;;;4.03;;
18983;SDS011;9626;52.552;13.436;2023-05-10T03:10:05;7.53;;;4.50;;
18983;SDS011;9626;52.552;13.436;2023-05-10T03:15:11;7.43;;;4.33;;
18983;SDS011;9626;52.552;13.436;2023-05-10T03:20:21;5.33;;;4.33;;
18983;SDS011;9626;52.552;13.436;2023-05-10T03:22:52;10.30;;;4.67;;
18983;SDS011;9626;52.552;13.436;2023-05-10T03:25:22;5.40;;;4.27;;
18983;SDS011;9626;52.552;13.436;2023-05-10T03:27:49;7.40;;;4.53;;
18983;SDS011;9626;52.552;13.436;2023-05-10T03:30:15;6.90;;;4.53;;
18983;SDS011;9626;52.552;13.436;2023-05-10T03:32:42;5.50;;;4.43;;
18983;SDS011;9626;52.552;13.436;2023-05-10T03:35:09;8.53;;;5.03;;
18983;SDS011;9626;52.552;13.436;2023-05-10T03:37:35;7.33;;;4.47;;
18983;SDS011;9626;52.552;13.436;2023-05-10T03:40:02;7.00;;;4.50;;
18983;SDS011;9626;52.552;13.436;2023-05-10T03:42:28;6.53;;;4.37;;
18983;SDS011;9626;52.552;13.436;2023-05-10T03:44:54;8.20;;;4.43;;
18983;SDS011;9626;52.552;13.436;2023-05-10T03:47:20;6.93;;;4.63;;
18983;SDS011;9626;52.552;13.436;2023-05-10T03:49:46;6.87;;;4.37;;
18983;SDS011;9626;52.552;13.436;2023-05-10T03:52:12;5.63;;;4.30;;
18983;SDS011;9626;52.552;13.436;2023-05-10T03:54:38;7.10;;;4.40;;
18983;SDS011;9626;52.552;13.436;2023-05-10T03:57:04;8.97;;;4.60;;
18983;SDS011;9626;52.552;13.436;2023-05-10T03:59:30;7.70;;;5.07;;
18983;SDS011;9626;52.552;13.436;2023-05-10T04:01:56;6.53;;;4.40;;
18983;SDS011;9626;52.552;13.436;2023-05-10T04:04:22;7.43;;;4.83;;
18983;SDS011;9626;52.552;13.436;2023-05-10T04:06:49;7.57;;;4.33;;
18983;SDS011;9626;52.552;13.436;2023-05-10T04:09:15;5.47;;;3.77;;
18983;SDS011;9626;52.552;13.436;2023-05-10T04:11:42;5.83;;;4.80;;
18983;SDS011;9626;52.552;13.436;2023-05-10T04:14:08;6.03;;;4.20;;
18983;SDS011;9626;52.552;13.436;2023-05-10T04:16:34;8.37;;;4.43;;
18983;SDS011;9626;52.552;13.436;2023-05-10T04:19:00;5.77;;;4.10;;
18983;SDS011;9626;52.552;13.436;2023-05-10T04:21:26;6.10;;;4.00;;
18983;SDS011;9626;52.552;13.436;2023-05-10T04:23:52;8.43;;;4.67;;
18983;SDS011;9626;52.552;13.436;2023-05-10T04:26:18;7.37;;;4.43;;
18983;SDS011;9626;52.552;13.436;2023-05-10T04:28:44;5.90;;;4.37;;
18983;SDS011;9626;52.552;13.436;2023-05-10T04:31:11;6.83;;;3.97;;
18983;SDS011;9626;52.552;13.436;2023-05-10T04:33:37;6.17;;;4.23;;
18983;SDS011;9626;52.552;13.436;2023-05-10T04:36:03;7.53;;;4.53;;
18983;SDS011;9626;52.552;13.436;2023-05-10T04:38:32;9.77;;;4.67;;
18983;SDS011;9626;52.552;13.436;2023-05-10T04:41:04;5.63;;;4.07;;
18983;SDS011;9626;52.552;13.436;2023-05-10T04:43:35;5.93;;;4.17;;
18983;SDS011;9626;52.552;13.436;2023-05-10T04:46:05;7.60;;;4.10;;
18983;SDS011;9626;52.552;13.436;2023-05-10T04:48:32;8.83;;;4.00;;
18983;SDS011;9626;52.552;13.436;2023-05-10T04:50:59;6.67;;;4.40;;
18983;SDS011;9626;52.552;13.436;2023-05-10T04:53:25;5.47;;;4.10;;
18983;SDS011;9626;52.552;13.436;2023-05-10T04:55:51;6.13;;;4.10;;
18983;SDS011;9626;52.552;13.436;2023-05-10T04:58:18;6.60;;;4.30;;
18983;SDS011;9626;52.552;13.436;2023-05-10T05:00:44;5.60;;;4.00;;
18983;SDS011;9626;52.552;13.436;2023-05-10T05:03:10;6.97;;;4.00;;
18983;SDS011;9626;52.552;13.436;2023-05-10T05:05:36;8.87;;;4.63;;
18983;SDS011;9626;52.552;13.436;2023-05-10T05:08:02;10.43;;;4.40;;
18983;SDS011;9626;52.552;13.436;2023-05-10T05:10:28;7.57;;;3.73;;
18983;SDS011;9626;52.552;13.436;2023-05-10T05:12:54;10.40;;;4.10;;
18983;SDS011;9626;52.552;13.436;2023-05-10T05:15:20;10.37;;;3.80;;
18983;SDS011;9626;52.552;13.436;2023-05-10T05:17:46;6.93;;;3.77;;
18983;SDS011;9626;52.552;13.436;2023-05-10T05:20:12;7.80;;;3.70;;
18983;SDS011;9626;52.552;13.436;2023-05-10T05:22:38;6.97;;;3.80;;
18983;SDS011;9626;52.552;13.436;2023-05-10T05:25:05;8.40;;;3.83;;
18983;SDS011;9626;52.552;13.436;2023-05-10T05:27:31;7.93;;;3.73;;
18983;SDS011;9626;52.552;13.436;2023-05-10T05:29:57;7.20;;;3.57;;
18983;SDS011;9626;52.552;13.436;2023-05-10T05:32:24;6.87;;;3.20;;
18983;SDS011;9626;52.552;13.436;2023-05-10T05:34:50;3.97;;;3.33;;
18983;SDS011;9626;52.552;13.436;2023-05-10T05:37:20;4.37;;;3.47;;
18983;SDS011;9626;52.552;13.436;2023-05-10T05:39:48;6.63;;;3.70;;
18983;SDS011;9626;52.552;13.436;2023-05-10T05:42:14;3.90;;;2.90;;
18983;SDS011;9626;52.552;13.436;2023-05-10T05:44:42;5.30;;;3.47;;
18983;SDS011;9626;52.552;13.436;2023-05-10T05:47:08;5.73;;;3.77;;
18983;SDS011;9626;52.552;13.436;2023-05-10T05:49:34;5.17;;;2.83;;
18983;SDS011;9626;52.552;13.436;2023-05-10T05:52:00;4.47;;;3.20;;
18983;SDS011;9626;52.552;13.436;2023-05-10T05:54:28;7.80;;;3.60;;
18983;SDS011;9626;52.552;13.436;2023-05-10T05:56:55;5.07;;;2.90;;
18983;SDS011;9626;52.552;13.436;2023-05-10T05:59:22;8.07;;;3.70;;
18983;SDS011;9626;52.552;13.436;2023-05-10T06:01:48;5.43;;;3.00;;
18983;SDS011;9626;52.552;13.436;2023-05-10T06:04:15;4.93;;;3.20;;
18983;SDS011;9626;52.552;13.436;2023-05-10T06:06:41;5.93;;;3.37;;
18983;SDS011;9626;52.552;13.436;2023-05-10T06:09:08;5.63;;;3.17;;
18983;SDS011;9626;52.552;13.436;2023-05-10T06:11:35;5.50;;;3.10;;
18983;SDS011;9626;52.552;13.436;2023-05-10T06:14:01;4.50;;;3.13;;
18983;SDS011;9626;52.552;13.436;2023-05-10T06:16:29;6.83;;;2.80;;
18983;SDS011;9626;52.552;13.436;2023-05-10T06:18:55;6.87;;;3.17;;
18983;SDS011;9626;52.552;13.436;2023-05-10T06:21:22;3.43;;;3.07;;
18983;SDS011;9626;52.552;13.436;2023-05-10T06:23:48;4.67;;;2.40;;
18983;SDS011;9626;52.552;13.436;2023-05-10T06:26:14;7.10;;;2.70;;
18983;SDS011;9626;52.552;13.436;2023-05-10T06:28:39;4.50;;;2.80;;
18983;SDS011;9626;52.552;13.436;2023-05-10T06:31:06;3.70;;;2.80;;
18983;SDS011;9626;52.552;13.436;2023-05-10T06:33:32;4.80;;;2.70;;
18983;SDS011;9626;52.552;13.436;2023-05-10T06:35:59;4.63;;;3.20;;
18983;SDS011;9626;52.552;13.436;2023-05-10T06:38:25;5.00;;;2.83;;
18983;SDS011;9626;52.552;13.436;2023-05-10T06:40:51;3.90;;;2.80;;
18983;SDS011;9626;52.552;13.436;2023-05-10T06:43:17;4.63;;;2.40;;
18983;SDS011;9626;52.552;13.436;2023-05-10T06:45:43;4.00;;;2.80;;
18983;SDS011;9626;52.552;13.436;2023-05-10T06:48:09;5.57;;;2.90;;
18983;SDS011;9626;52.552;13.436;2023-05-10T06:50:35;4.43;;;2.70;;
18983;SDS011;9626;52.552;13.436;2023-05-10T06:53:01;3.60;;;2.40;;
18983;SDS011;9626;52.552;13.436;2023-05-10T06:55:28;6.20;;;2.50;;
18983;SDS011;9626;52.552;13.436;2023-05-10T06:57:54;7.40;;;2.80;;
18983;SDS011;9626;52.552;13.436;2023-05-10T07:00:20;4.27;;;2.50;;
18983;SDS011;9626;52.552;13.436;2023-05-10T07:02:46;6.40;;;2.57;;
18983;SDS011;9626;52.552;13.436;2023-05-10T07:05:13;3.20;;;2.23;;
18983;SDS011;9626;52.552;13.436;2023-05-10T07:07:39;4.03;;;2.50;;
18983;SDS011;9626;52.552;13.436;2023-05-10T07:10:05;3.53;;;2.70;;
18983;SDS011;9626;52.552;13.436;2023-05-10T07:12:32;4.53;;;2.83;;
18983;SDS011;9626;52.552;13.436;2023-05-10T07:14:58;2.90;;;2.60;;
18983;SDS011;9626;52.552;13.436;2023-05-10T07:17:24;4.20;;;2.70;;
18983;SDS011;9626;52.552;13.436;2023-05-10T07:19:50;6.53;;;3.23;;
18983;SDS011;9626;52.552;13.436;2023-05-10T07:22:16;3.50;;;2.70;;
18983;SDS011;9626;52.552;13.436;2023-05-10T07:24:42;4.83;;;2.63;;
18983;SDS011;9626;52.552;13.436;2023-05-10T07:27:09;4.17;;;2.60;;
18983;SDS011;9626;52.552;13.436;2023-05-10T07:29:35;4.20;;;2.80;;
18983;SDS011;9626;52.552;13.436;2023-05-10T07:32:01;16.80;;;2.87;;
18983;SDS011;9626;52.552;13.436;2023-05-10T07:34:27;2.90;;;2.53;;
18983;SDS011;9626;52.552;13.436;2023-05-10T07:36:57;4.37;;;2.50;;
18983;SDS011;9626;52.552;13.436;2023-05-10T07:39:25;3.40;;;2.30;;
18983;SDS011;9626;52.552;13.436;2023-05-10T07:41:51;6.57;;;3.03;;
18983;SDS011;9626;52.552;13.436;2023-05-10T07:44:17;4.83;;;2.80;;
18983;SDS011;9626;52.552;13.436;2023-05-10T07:46:46;4.50;;;2.60;;
18983;SDS011;9626;52.552;13.436;2023-05-10T07:49:12;4.50;;;2.40;;
18983;SDS011;9626;52.552;13.436;2023-05-10T07:51:38;3.77;;;2.63;;
18983;SDS011;9626;52.552;13.436;2023-05-10T07:54:04;5.07;;;2.63;;
18983;SDS011;9626;52.552;13.436;2023-05-10T07:56:31;3.43;;;2.90;;
18983;SDS011;9626;52.552;13.436;2023-05-10T07:59:01;5.03;;;2.80;;
18983;SDS011;9626;52.552;13.436;2023-05-10T08:01:32;3.40;;;2.43;;
18983;SDS011;9626;52.552;13.436;2023-05-10T08:04:00;6.20;;;2.73;;
18983;SDS011;9626;52.552;13.436;2023-05-10T08:06:27;8.10;;;2.90;;
18983;SDS011;9626;52.552;13.436;2023-05-10T08:08:55;8.50;;;2.77;;
18983;SDS011;9626;52.552;13.436;2023-05-10T08:11:22;6.30;;;2.63;;
18983;SDS011;9626;52.552;13.436;2023-05-10T08:13:49;7.53;;;2.70;;
18983;SDS011;9626;52.552;13.436;2023-05-10T08:16:16;8.27;;;2.67;;
18983;SDS011;9626;52.552;13.436;2023-05-10T08:18:43;2.80;;;2.27;;
18983;SDS011;9626;52.552;13.436;2023-05-10T08:21:10;6.30;;;2.60;;
18983;SDS011;9626;52.552;13.436;2023-05-10T08:23:39;4.47;;;2.57;;
18983;SDS011;9626;52.552;13.436;2023-05-10T08:26:06;5.37;;;2.40;;
18983;SDS011;9626;52.552;13.436;2023-05-10T08:28:32;6.77;;;2.70;;
18983;SDS011;9626;52.552;13.436;2023-05-10T08:30:58;4.43;;;2.40;;
18983;SDS011;9626;52.552;13.436;2023-05-10T08:33:24;3.23;;;2.47;;
18983;SDS011;9626;52.552;13.436;2023-05-10T08:36:05;3.27;;;2.60;;
18983;SDS011;9626;52.552;13.436;2023-05-10T08:38:31;2.30;;;2.00;;
18983;SDS011;9626;52.552;13.436;2023-05-10T08:40:57;3.67;;;2.37;;
18983;SDS011;9626;52.552;13.436;2023-05-10T08:43:27;12.60;;;3.00;;
18983;SDS011;9626;52.552;13.436;2023-05-10T08:45:55;2.67;;;2.33;;
18983;SDS011;9626;52.552;13.436;2023-05-10T08:48:23;7.00;;;2.50;;
18983;SDS011;9626;52.552;13.436;2023-05-10T08:50:51;4.53;;;2.07;;
18983;SDS011;9626;52.552;13.436;2023-05-10T08:53:22;4.53;;;2.80;;
18983;SDS011;9626;52.552;13.436;2023-05-10T08:55:50;8.67;;;2.80;;
18983;SDS011;9626;52.552;13.436;2023-05-10T08:58:17;5.38;;;2.55;;
18983;SDS011;9626;52.552;13.436;2023-05-10T09:00:45;4.97;;;2.20;;
18983;SDS011;9626;52.552;13.436;2023-05-10T09:03:11;4.68;;;2.30;;
18983;SDS011;9626;52.552;13.436;2023-05-10T09:05:38;5.13;;;2.40;;
18983;SDS011;9626;52.552;13.436;2023-05-10T09:08:05;2.60;;;2.40;;
18983;SDS011;9626;52.552;13.436;2023-05-10T09:10:32;2.42;;;2.22;;
18983;SDS011;9626;52.552;13.436;2023-05-10T09:12:58;7.65;;;2.40;;
18983;SDS011;9626;52.552;13.436;2023-05-10T09:15:24;4.63;;;2.20;;
18983;SDS011;9626;52.552;13.436;2023-05-10T09:17:51;7.72;;;3.17;;
18983;SDS011;9626;52.552;13.436;2023-05-10T09:20:17;3.90;;;2.63;;
18983;SDS011;9626;52.552;13.436;2023-05-10T09:22:43;3.08;;;2.20;;
18983;SDS011;9626;52.552;13.436;2023-05-10T09:25:10;4.40;;;2.20;;
18983;SDS011;9626;52.552;13.436;2023-05-10T09:27:40;3.10;;;2.10;;
18983;SDS011;9626;52.552;13.436;2023-05-10T09:30:10;3.85;;;2.22;;
18983;SDS011;9626;52.552;13.436;2023-05-10T09:32:42;3.57;;;2.30;;
18983;SDS011;9626;52.552;13.436;2023-05-10T09:35:14;6.00;;;2.40;;
18983;SDS011;9626;52.552;13.436;2023-05-10T09:37:43;9.30;;;2.60;;
18983;SDS011;9626;52.552;13.436;2023-05-10T09:40:15;3.50;;;2.27;;
18983;SDS011;9626;52.552;13.436;2023-05-10T09:42:42;4.60;;;2.30;;
18983;SDS011;9626;52.552;13.436;2023-05-10T09:45:16;5.53;;;2.33;;
18983;SDS011;9626;52.552;13.436;2023-05-10T09:47:43;5.30;;;2.63;;
18983;SDS011;9626;52.552;13.436;2023-05-10T09:50:09;3.73;;;2.27;;
18983;SDS011;9626;52.552;13.436;2023-05-10T09:52:51;3.40;;;2.50;;
18983;SDS011;9626;52.552;13.436;2023-05-10T09:55:24;3.77;;;2.53;;
18983;SDS011;9626;52.552;13.436;2023-05-10T09:58:00;10.63;;;2.53;;
18983;SDS011;9626;52.552;13.436;2023-05-10T10:00:27;4.17;;;2.30;;
18983;SDS011;9626;52.552;13.436;2023-05-10T10:02:54;3.43;;;2.57;;
18983;SDS011;9626;52.552;13.436;2023-05-10T10:05:27;2.87;;;2.50;;
18983;SDS011;9626;52.552;13.436;2023-05-10T10:07:55;4.57;;;2.20;;
18983;SDS011;9626;52.552;13.436;2023-05-10T10:10:22;5.63;;;2.50;;
18983;SDS011;9626;52.552;13.436;2023-05-10T10:12:49;5.50;;;2.10;;
18983;SDS011;9626;52.552;13.436;2023-05-10T10:15:15;2.97;;;2.27;;
18983;SDS011;9626;52.552;13.436;2023-05-10T10:17:42;2.50;;;2.30;;
18983;SDS011;9626;52.552;13.436;2023-05-10T10:20:09;5.30;;;2.20;;
18983;SDS011;9626;52.552;13.436;2023-05-10T10:22:36;2.80;;;2.40;;
18983;SDS011;9626;52.552;13.436;2023-05-10T10:25:04;4.18;;;2.30;;
18983;SDS011;9626;52.552;13.436;2023-05-10T10:36:04;3.73;;;2.47;;
18983;SDS011;9626;52.552;13.436;2023-05-10T10:38:37;3.63;;;2.50;;
18983;SDS011;9626;52.552;13.436;2023-05-10T10:44:24;5.18;;;2.15;;
18983;SDS011;9626;52.552;13.436;2023-05-10T10:47:00;6.47;;;2.20;;
18983;SDS011;9626;52.552;13.436;2023-05-10T10:49:27;6.40;;;2.37;;
18983;SDS011;9626;52.552;13.436;2023-05-10T10:52:14;4.67;;;2.20;;
18983;SDS011;9626;52.552;13.436;2023-05-10T10:57:22;2.30;;;2.10;;
18983;SDS011;9626;52.552;13.436;2023-05-10T10:59:49;3.38;;;2.13;;
18983;SDS011;9626;52.552;13.436;2023-05-10T11:10:38;6.13;;;2.63;;
18983;SDS011;9626;52.552;13.436;2023-05-10T11:13:06;5.53;;;2.10;;
18983;SDS011;9626;52.552;13.436;2023-05-10T11:15:34;5.30;;;2.10;;
18983;SDS011;9626;52.552;13.436;2023-05-10T11:20:50;5.18;;;2.20;;
18983;SDS011;9626;52.552;13.436;2023-05-10T11:23:17;3.92;;;2.55;;
18983;SDS011;9626;52.552;13.436;2023-05-10T11:25:45;4.70;;;2.13;;
18983;SDS011;9626;52.552;13.436;2023-05-10T11:28:11;4.85;;;2.72;;
18983;SDS011;9626;52.552;13.436;2023-05-10T11:30:38;3.50;;;2.13;;
18983;SDS011;9626;52.552;13.436;2023-05-10T11:33:11;2.65;;;2.38;;
18983;SDS011;9626;52.552;13.436;2023-05-10T11:35:41;2.75;;;2.20;;
18983;SDS011;9626;52.552;13.436;2023-05-10T11:38:07;7.25;;;2.28;;
18983;SDS011;9626;52.552;13.436;2023-05-10T11:40:35;3.53;;;2.20;;
18983;SDS011;9626;52.552;13.436;2023-05-10T11:43:02;2.70;;;2.33;;
18983;SDS011;9626;52.552;13.436;2023-05-10T11:45:29;8.60;;;2.20;;
18983;SDS011;9626;52.552;13.436;2023-05-10T11:47:58;3.40;;;2.33;;
18983;SDS011;9626;52.552;13.436;2023-05-10T11:50:25;3.00;;;2.30;;
18983;SDS011;9626;52.552;13.436;2023-05-10T11:52:53;4.45;;;2.10;;
18983;SDS011;9626;52.552;13.436;2023-05-10T11:55:19;6.93;;;2.38;;
18983;SDS011;9626;52.552;13.436;2023-05-10T11:57:46;7.32;;;2.45;;
18983;SDS011;9626;52.552;13.436;2023-05-10T12:00:13;4.70;;;2.72;;
18983;SDS011;9626;52.552;13.436;2023-05-10T12:02:39;5.03;;;2.72;;
18983;SDS011;9626;52.552;13.436;2023-05-10T12:05:05;6.32;;;2.40;;
18983;SDS011;9626;52.552;13.436;2023-05-10T12:07:32;9.00;;;2.13;;
18983;SDS011;9626;52.552;13.436;2023-05-10T12:12:35;3.40;;;2.22;;
18983;SDS011;9626;52.552;13.436;2023-05-10T12:15:05;8.52;;;2.45;;
18983;SDS011;9626;52.552;13.436;2023-05-10T12:17:36;5.25;;;2.13;;
18983;SDS011;9626;52.552;13.436;2023-05-10T12:20:12;7.22;;;2.47;;
18983;SDS011;9626;52.552;13.436;2023-05-10T12:22:40;3.85;;;2.03;;
18983;SDS011;9626;52.552;13.436;2023-05-10T12:25:07;8.23;;;2.55;;
18983;SDS011;9626;52.552;13.436;2023-05-10T12:27:34;6.78;;;2.50;;
18983;SDS011;9626;52.552;13.436;2023-05-10T12:30:00;4.18;;;2.03;;
18983;SDS011;9626;52.552;13.436;2023-05-10T12:32:37;6.00;;;1.92;;
18983;SDS011;9626;52.552;13.436;2023-05-10T12:35:07;4.50;;;2.10;;
18983;SDS011;9626;52.552;13.436;2023-05-10T12:37:34;5.78;;;2.10;;
18983;SDS011;9626;52.552;13.436;2023-05-10T12:40:07;5.72;;;1.60;;
18983;SDS011;9626;52.552;13.436;2023-05-10T12:42:35;3.22;;;2.20;;
18983;SDS011;9626;52.552;13.436;2023-05-10T12:45:01;5.63;;;2.03;;
18983;SDS011;9626;52.552;13.436;2023-05-10T12:47:28;6.32;;;1.90;;
18983;SDS011;9626;52.552;13.436;2023-05-10T12:49:54;6.00;;;2.00;;
18983;SDS011;9626;52.552;13.436;2023-05-10T12:52:20;7.38;;;2.28;;
18983;SDS011;9626;52.552;13.436;2023-05-10T12:54:46;8.25;;;2.42;;
18983;SDS011;9626;52.552;13.436;2023-05-10T12:57:12;6.28;;;2.10;;
18983;SDS011;9626;52.552;13.436;2023-05-10T12:59:39;8.23;;;2.30;;
18983;SDS011;9626;52.552;13.436;2023-05-10T13:02:05;3.33;;;1.70;;
18983;SDS011;9626;52.552;13.436;2023-05-10T13:04:32;6.68;;;1.80;;
18983;SDS011;9626;52.552;13.436;2023-05-10T13:06:58;5.80;;;1.95;;
18983;SDS011;9626;52.552;13.436;2023-05-10T13:09:24;2.42;;;1.65;;
18983;SDS011;9626;52.552;13.436;2023-05-10T13:11:52;5.80;;;2.40;;
18983;SDS011;9626;52.552;13.436;2023-05-10T13:14:19;3.72;;;2.20;;
18983;SDS011;9626;52.552;13.436;2023-05-10T13:16:48;5.68;;;1.70;;
18983;SDS011;9626;52.552;13.436;2023-05-10T13:19:15;2.10;;;1.67;;
18983;SDS011;9626;52.552;13.436;2023-05-10T13:21:41;3.65;;;2.30;;
18983;SDS011;9626;52.552;13.436;2023-05-10T13:24:07;2.80;;;1.90;;
18983;SDS011;9626;52.552;13.436;2023-05-10T13:26:33;22.42;;;3.50;;
18983;SDS011;9626;52.552;13.436;2023-05-10T13:29:00;8.23;;;2.38;;
18983;SDS011;9626;52.552;13.436;2023-05-10T13:31:26;4.95;;;2.10;;
18983;SDS011;9626;52.552;13.436;2023-05-10T13:33:52;2.55;;;1.90;;
18983;SDS011;9626;52.552;13.436;2023-05-10T13:36:18;4.22;;;1.90;;
18983;SDS011;9626;52.552;13.436;2023-05-10T13:38:44;3.00;;;2.22;;
18983;SDS011;9626;52.552;13.436;2023-05-10T13:41:10;2.08;;;1.75;;
18983;SDS011;9626;52.552;13.436;2023-05-10T13:43:36;3.97;;;2.22;;
18983;SDS011;9626;52.552;13.436;2023-05-10T13:46:02;5.05;;;1.92;;
18983;SDS011;9626;52.552;13.436;2023-05-10T13:48:28;2.75;;;1.85;;
18983;SDS011;9626;52.552;13.436;2023-05-10T13:50:54;7.68;;;1.90;;
18983;SDS011;9626;52.552;13.436;2023-05-10T13:53:20;4.05;;;2.13;;
18983;SDS011;9626;52.552;13.436;2023-05-10T13:55:46;2.28;;;1.85;;
18983;SDS011;9626;52.552;13.436;2023-05-10T13:58:12;6.07;;;2.13;;
18983;SDS011;9626;52.552;13.436;2023-05-10T14:00:38;3.40;;;1.88;;
18983;SDS011;9626;52.552;13.436;2023-05-10T14:03:04;2.15;;;1.85;;
18983;SDS011;9626;52.552;13.436;2023-05-10T14:05:31;3.05;;;1.65;;
18983;SDS011;9626;52.552;13.436;2023-05-10T14:07:58;3.90;;;2.08;;
18983;SDS011;9626;52.552;13.436;2023-05-10T14:10:24;5.18;;;1.98;;
18983;SDS011;9626;52.552;13.436;2023-05-10T14:12:50;3.35;;;1.70;;
18983;SDS011;9626;52.552;13.436;2023-05-10T14:15:17;6.03;;;2.10;;
18983;SDS011;9626;52.552;13.436;2023-05-10T14:17:43;7.70;;;2.15;;
18983;SDS011;9626;52.552;13.436;2023-05-10T14:20:09;2.58;;;1.85;;
18983;SDS011;9626;52.552;13.436;2023-05-10T14:22:36;7.57;;;1.92;;
18983;SDS011;9626;52.552;13.436;2023-05-10T14:25:02;4.35;;;1.70;;
18983;SDS011;9626;52.552;13.436;2023-05-10T14:27:28;3.70;;;2.05;;
18983;SDS011;9626;52.552;13.436;2023-05-10T14:29:55;4.35;;;2.00;;
18983;SDS011;9626;52.552;13.436;2023-05-10T14:32:21;3.78;;;1.80;;
18983;SDS011;9626;52.552;13.436;2023-05-10T14:34:47;5.13;;;1.80;;
18983;SDS011;9626;52.552;13.436;2023-05-10T14:37:13;4.45;;;1.90;;
18983;SDS011;9626;52.552;13.436;2023-05-10T14:39:40;5.70;;;1.63;;
18983;SDS011;9626;52.552;13.436;2023-05-10T14:42:08;3.67;;;2.03;;
18983;SDS011;9626;52.552;13.436;2023-05-10T14:44:34;2.78;;;1.70;;
18983;SDS011;9626;52.552;13.436;2023-05-10T14:47:00;2.97;;;1.90;;
18983;SDS011;9626;52.552;13.436;2023-05-10T14:49:26;2.80;;;1.92;;
18983;SDS011;9626;52.552;13.436;2023-05-10T14:51:52;5.88;;;2.03;;
18983;SDS011;9626;52.552;13.436;2023-05-10T14:54:18;1.80;;;1.67;;
18983;SDS011;9626;52.552;13.436;2023-05-10T14:56:44;4.43;;;1.73;;
18983;SDS011;9626;52.552;13.436;2023-05-10T14:59:10;4.82;;;2.20;;
18983;SDS011;9626;52.552;13.436;2023-05-10T15:01:36;4.07;;;1.70;;
18983;SDS011;9626;52.552;13.436;2023-05-10T15:04:03;2.58;;;1.88;;
18983;SDS011;9626;52.552;13.436;2023-05-10T15:06:30;2.15;;;1.50;;
18983;SDS011;9626;52.552;13.436;2023-05-10T15:08:57;5.70;;;2.17;;
18983;SDS011;9626;52.552;13.436;2023-05-10T15:11:23;3.13;;;1.88;;
18983;SDS011;9626;52.552;13.436;2023-05-10T15:13:49;4.10;;;1.85;;
18983;SDS011;9626;52.552;13.436;2023-05-10T15:16:15;5.07;;;2.47;;
18983;SDS011;9626;52.552;13.436;2023-05-10T15:18:41;5.38;;;1.90;;
18983;SDS011;9626;52.552;13.436;2023-05-10T15:21:07;4.68;;;1.88;;
18983;SDS011;9626;52.552;13.436;2023-05-10T15:23:33;4.05;;;1.67;;
18983;SDS011;9626;52.552;13.436;2023-05-10T15:26:00;8.32;;;2.13;;
18983;SDS011;9626;52.552;13.436;2023-05-10T15:28:26;2.55;;;1.70;;
18983;SDS011;9626;52.552;13.436;2023-05-10T15:30:52;5.45;;;1.92;;
18983;SDS011;9626;52.552;13.436;2023-05-10T15:33:18;5.07;;;1.88;;
18983;SDS011;9626;52.552;13.436;2023-05-10T15:35:44;3.95;;;1.90;;
18983;SDS011;9626;52.552;13.436;2023-05-10T15:38:10;4.20;;;2.15;;
18983;SDS011;9626;52.552;13.436;2023-05-10T15:40:37;5.18;;;2.10;;